Portada
METAR-TAF:

METAR-TAF

Aeroports :

Antsiranana, Madagascar

latitud: 12-21S, longitud: 049-18E, altitud: 114 m

Observació

L'informe es va fer fa 13 hores i 20 minuts, a les 12:00 UTC
Vent 12 kt del Sud-Est
Temperatura 29°C
Humitat 45%
Pressió 1015 hPa
Visibilitat 10 km o més
Escasses núvols a una alçada de 2000 ft

METAR: FMNA 201200Z 14012KT 9999 FEW020 29/16 Q1015

Hora: 04:20 (01:20 UTC)


TAF: manca

Observacions i pronòstics meteorològics de més de 4000 aeroports (METAR i TAF).

Les estacions disponibles són els punts grocs i vermells al mapa.

Posi el ratolí al punt desitjat per veure el nom de l'estació.

Feu clic per veure les observacions i els pronòstics meteorològics.

Per canviar el mapa: feu clic els botons verds amb una creu de color negre per apropar; al botó verd amb un guió per allunyar la imatge; o en les fletxes verdes per a mapes adjacents.


METAR-TAF: